Aérodrome :
LOGIN :

S'inscrire | Disclaimer

   EN    FR    IT 

 










Légende :    VFR   VFR Marginal   IFR   IFR Intensif   IFR Très Intensif
Visi : 
Plafond : 
>= 8 km
>= 3000ft
5 à 8 km
1000 à 3000 ft
1500m à 5 km
500 à 1000 ft
800 à 1500m
200 à 500 ft
< 800m
< 200 ft
Symboles :   Orages  Brouillard  Fortes neiges  Fortes précipitations  Vent > 20 kt
SIGMETs :   Divers  Orages  Givrage  Turbulence  Onde Orograph.  Cendres Volcan.







- Altitude de l'aérodrome : 386 ft
- Code IATA : QOE


ETNN - Nörvenich Airforce Base

DERNIER METAR :
  • 251920Z 33010KT 9999 FEW020 BKN040 07/01 Q1027 BLU BLU TEMPO GRN

METARs EXPIRÉS :
  • 251820Z 33008KT 9999 SCT020 BKN030 07/03 Q1026 BLU BLU TEMPO GRN
  • 251720Z 33012KT 9999 FEW020CB BKN030 07/03 Q1025 BLU BLU TEMPO GRN

TAF AMD TAF ETNN
Valide du 25 à 15h jusqu'au 26 à 00h UTC


251930Z 2515/2524 30015G25KT 9999 NSW SCT020 BKN040
TEMPO 2515/2518 32020G35KT 4000 SHRAGS SCT010 BKN015CB
PROB30 2515/2517 33025G38KT 2000 TSGS BKN010CB CANCEL BY ETGL
Pas de NOTAMs connus pour ce terrain.



MET'MAP, la Météo Aéronautique d'un coup d'oeil ! - Copyright ORBIFLY Décembre 2007 - Disclaimer

ORBIFLY MET'MAP TEAM :

Programmation & Développement : Alexandra Zaïnal
Conception & Développement : Baudouin d'Aumeries
Co-Programmation & Développement : Marc-Olivier Méhu
Soutien technique & logistique : Manuel Goepfert

Contact : metmap@orbifly.com




SOURCES & CREDITS :

   NOAA